Time;durP1;ratioP1;P1;durP2;ratioP2;P2;SDS_P1;SDS_P2;PMS_P1;PMS_P2;Temp;Humidity;BMP_temperature;BMP_pressure;BME280_temperature;BME280_humidity;BME280_pressure;Samples;Min_cycle;Max_cycle;Signal;HPM_P1;HPM_P2
2022/06/01 00:01:36;;;;;;;9.25;7.10;;;11.90;99.90;;;;;;5094034;28;20109;-59
2022/06/01 00:04:02;;;;;;;7.68;6.15;;;11.90;99.90;;;;;;5111799;28;20488;-59
2022/06/01 00:06:28;;;;;;;8.38;6.28;;;11.90;99.90;;;;;;5092235;28;20250;-61
2022/06/01 00:08:53;;;;;;;10.38;6.65;;;11.90;99.90;;;;;;5111564;28;20119;-61
2022/06/01 00:11:19;;;;;;;11.07;6.85;;;12.00;99.90;;;;;;5092444;28;20420;-60
2022/06/01 00:13:45;;;;;;;7.70;6.43;;;12.00;99.90;;;;;;5076481;28;20043;-60
2022/06/01 00:16:11;;;;;;;8.32;6.75;;;12.00;99.90;;;;;;5110563;28;20043;-60
2022/06/01 00:18:38;;;;;;;10.57;7.30;;;12.10;99.90;;;;;;5111352;28;20499;-60
2022/06/01 00:21:04;;;;;;;8.93;7.07;;;12.10;99.90;;;;;;5093695;28;20050;-60
2022/06/01 00:23:30;;;;;;;10.65;8.32;;;12.10;99.90;;;;;;5111360;28;20043;-60
2022/06/01 00:25:58;;;;;;;11.50;7.93;;;12.10;99.90;;;;;;5111591;28;20147;-59
2022/06/01 00:28:24;;;;;;;14.15;8.30;;;12.00;99.90;;;;;;5111146;28;20077;-60
2022/06/01 00:30:50;;;;;;;9.77;8.38;;;12.10;99.90;;;;;;5093400;28;20546;-60
2022/06/01 00:33:16;;;;;;;11.00;8.23;;;12.00;99.90;;;;;;5111261;28;20127;-60
2022/06/01 00:35:42;;;;;;;11.75;8.07;;;12.00;99.90;;;;;;5111628;28;20127;-60
2022/06/01 00:38:08;;;;;;;11.15;8.85;;;12.00;99.90;;;;;;5111283;28;20138;-60
2022/06/01 00:40:34;;;;;;;11.95;8.23;;;12.10;99.90;;;;;;5110279;28;20645;-60
2022/06/01 00:43:15;;;;;;;11.63;8.63;;;12.10;99.90;;;;;;5111194;28;20075;-61
2022/06/01 00:45:41;;;;;;;10.60;9.23;;;12.10;99.90;;;;;;5111248;28;20043;-61
2022/06/01 00:48:07;;;;;;;11.07;8.73;;;12.10;99.90;;;;;;5111080;28;20048;-60
2022/06/01 00:50:36;;;;;;;11.82;9.95;;;12.10;99.90;;;;;;5092848;28;20529;-60
2022/06/01 00:53:20;;;;;;;11.85;9.07;;;12.10;99.90;;;;;;5111375;28;20051;-60
2022/06/01 00:55:54;;;;;;;10.15;8.90;;;12.10;99.90;;;;;;5111210;28;20350;-61
2022/06/01 00:58:25;;;;;;;11.38;9.35;;;12.10;99.90;;;;;;5110905;28;20052;-61
2022/06/01 01:00:53;;;;;;;12.70;8.93;;;12.10;99.90;;;;;;5110782;28;20043;-61
2022/06/01 01:03:21;;;;;;;12.07;9.65;;;12.10;99.90;;;;;;5092831;28;20048;-60
2022/06/01 01:06:17;;;;;;;9.77;8.38;;;12.10;99.90;;;;;;5111194;28;20044;-61
2022/06/01 01:08:46;;;;;;;14.00;9.75;;;12.10;99.90;;;;;;5106254;28;20052;-61
2022/06/01 01:11:13;;;;;;;9.90;8.80;;;12.10;99.90;;;;;;5114590;28;20047;-61
2022/06/01 01:13:44;;;;;;;12.88;9.38;;;12.10;99.90;;;;;;5114554;28;20401;-60
2022/06/01 01:16:10;;;;;;;15.52;10.30;;;12.10;99.90;;;;;;5114277;28;20465;-60
2022/06/01 01:18:39;;;;;;;12.70;10.20;;;12.00;99.90;;;;;;5114130;28;20452;-60
2022/06/01 01:21:13;;;;;;;15.18;9.77;;;12.00;99.90;;;;;;5113807;28;20552;-61
2022/06/01 01:23:48;;;;;;;13.15;10.15;;;11.90;99.90;;;;;;5096195;28;20108;-61
2022/06/01 01:26:15;;;;;;;15.82;9.73;;;11.90;99.90;;;;;;5114663;28;20062;-61
2022/06/01 01:28:41;;;;;;;11.82;10.15;;;11.90;99.90;;;;;;5079558;28;20056;-61
2022/06/01 01:31:17;;;;;;;12.85;9.95;;;11.90;99.90;;;;;;5096495;28;20043;-62
2022/06/01 01:33:43;;;;;;;13.35;10.63;;;11.90;99.90;;;;;;5114065;28;20062;-61
2022/06/01 01:36:11;;;;;;;12.77;10.52;;;11.90;99.90;;;;;;5079280;28;20513;-60
2022/06/01 01:39:09;;;;;;;12.93;10.38;;;11.90;99.90;;;;;;5113957;28;20047;-60
2022/06/01 01:41:48;;;;;;;11.50;10.30;;;11.90;99.90;;;;;;5113831;28;20092;-60
2022/06/01 01:44:17;;;;;;;12.30;10.68;;;11.80;99.90;;;;;;5114436;28;20079;-60
2022/06/01 01:46:47;;;;;;;14.55;10.68;;;11.80;99.90;;;;;;5113077;28;20549;-61
2022/06/01 01:49:21;;;;;;;12.88;11.00;;;11.90;99.90;;;;;;5096029;28;20048;-61
2022/06/01 01:51:47;;;;;;;12.32;10.23;;;11.90;99.90;;;;;;5113480;28;20048;-61
2022/06/01 01:54:42;;;;;;;13.77;11.35;;;11.80;99.90;;;;;;5079315;28;20070;-60
2022/06/01 01:57:26;;;;;;;13.40;11.05;;;11.70;99.90;;;;;;5113662;28;20501;-60
2022/06/01 02:00:17;;;;;;;13.27;11.13;;;11.70;99.90;;;;;;5113837;28;20093;-60
2022/06/01 02:03:11;;;;;;;14.80;12.05;;;11.70;99.90;;;;;;5113669;28;20057;-60
2022/06/01 02:06:09;;;;;;;13.50;11.85;;;11.70;99.90;;;;;;5113747;28;20039;-61
2022/06/01 02:08:35;;;;;;;14.40;11.70;;;11.70;99.90;;;;;;5089910;28;20090;-60
2022/06/01 02:14:01;;;;;;;14.52;11.77;;;11.70;99.90;;;;;;5113513;28;20132;-60
2022/06/01 02:16:33;;;;;;;12.55;11.18;;;11.70;99.90;;;;;;5113625;28;20054;-63
2022/06/01 02:19:01;;;;;;;13.85;11.57;;;11.70;99.90;;;;;;5113615;28;20126;-61
2022/06/01 02:21:28;;;;;;;14.43;11.75;;;11.70;99.90;;;;;;5113424;28;20189;-65
2022/06/01 02:23:58;;;;;;;14.73;12.40;;;11.50;99.90;;;;;;5095425;28;20155;-61
2022/06/01 02:26:24;;;;;;;15.32;12.05;;;11.50;99.90;;;;;;5113440;28;20051;-61
2022/06/01 02:28:56;;;;;;;12.85;11.55;;;11.40;99.90;;;;;;5094862;28;20144;-61
2022/06/01 02:31:24;;;;;;;14.85;11.75;;;11.50;99.90;;;;;;5078192;28;20062;-61
2022/06/01 02:33:52;;;;;;;15.93;11.95;;;11.50;99.90;;;;;;5113070;28;20151;-61
2022/06/01 02:36:20;;;;;;;12.55;11.25;;;11.40;99.90;;;;;;5095298;28;20128;-61
2022/06/01 02:38:49;;;;;;;14.35;11.68;;;11.30;99.90;;;;;;5112642;28;20561;-60
2022/06/01 02:44:01;;;;;;;13.80;11.88;;;11.10;99.90;;;;;;5095087;28;20052;-61
2022/06/01 02:46:27;;;;;;;13.70;11.75;;;11.10;99.90;;;;;;5112931;28;20404;-61
2022/06/01 02:48:53;;;;;;;13.45;11.82;;;11.10;99.90;;;;;;5112765;28;20047;-61
2022/06/01 02:51:19;;;;;;;12.48;11.18;;;11.10;99.90;;;;;;5112914;28;20083;-61
2022/06/01 02:53:45;;;;;;;12.38;11.07;;;11.10;99.90;;;;;;5112686;28;20086;-61
2022/06/01 02:56:13;;;;;;;13.88;12.48;;;11.00;99.90;;;;;;5094592;28;20480;-61
2022/06/01 02:58:39;;;;;;;13.73;12.02;;;11.00;99.90;;;;;;5094251;28;20082;-61
2022/06/01 03:01:06;;;;;;;13.52;11.40;;;11.00;99.90;;;;;;5112703;28;20043;-61
2022/06/01 03:03:32;;;;;;;14.75;11.63;;;11.00;99.90;;;;;;5094471;28;20039;-60
2022/06/01 03:05:58;;;;;;;12.90;11.60;;;10.90;99.90;;;;;;5094103;28;20035;-62
2022/06/01 03:08:25;;;;;;;13.30;11.90;;;11.00;99.90;;;;;;5112680;28;20070;-61
2022/06/01 03:10:51;;;;;;;15.40;11.45;;;11.00;99.90;;;;;;5112293;28;20048;-61
2022/06/01 03:13:18;;;;;;;14.20;11.50;;;10.90;99.90;;;;;;5112493;28;20051;-61
2022/06/01 03:15:43;;;;;;;11.80;10.60;;;11.00;99.90;;;;;;5094028;28;20172;-62
2022/06/01 03:18:09;;;;;;;12.90;11.40;;;10.90;99.90;;;;;;5112496;28;20126;-61
2022/06/01 03:20:36;;;;;;;13.15;11.68;;;10.90;99.90;;;;;;5112595;28;20539;-60
2022/06/01 03:23:02;;;;;;;13.55;11.75;;;10.90;99.90;;;;;;5112378;28;20155;-61
2022/06/01 03:25:28;;;;;;;14.25;12.48;;;10.90;99.90;;;;;;5112073;28;20047;-60
2022/06/01 03:27:57;;;;;;;14.18;11.73;;;11.00;99.90;;;;;;5077107;28;20395;-60
2022/06/01 03:30:23;;;;;;;15.10;13.50;;;10.90;99.90;;;;;;5111648;28;20053;-62
2022/06/01 03:32:50;;;;;;;16.00;13.43;;;11.00;99.90;;;;;;5093503;28;20412;-61
2022/06/01 03:35:20;;;;;;;14.50;12.95;;;11.00;99.90;;;;;;5111887;28;20036;-63
2022/06/01 03:37:46;;;;;;;14.98;12.63;;;11.10;99.90;;;;;;5076963;28;20374;-60
2022/06/01 03:40:13;;;;;;;16.38;12.65;;;11.10;99.90;;;;;;5077213;28;20138;-60
2022/06/01 03:42:39;;;;;;;14.13;12.60;;;11.10;99.90;;;;;;5111925;28;20058;-60
2022/06/01 03:47:51;;;;;;;18.27;13.77;;;11.20;99.90;;;;;;5111765;28;20059;-60
2022/06/01 03:50:17;;;;;;;15.20;13.50;;;11.10;99.90;;;;;;5093461;28;20477;-61
2022/06/01 03:52:47;;;;;;;15.07;13.18;;;11.20;99.90;;;;;;5111276;28;20449;-59
2022/06/01 03:55:14;;;;;;;16.70;14.40;;;11.20;99.90;;;;;;5093485;28;20490;-61
2022/06/01 03:57:41;;;;;;;16.52;14.63;;;11.20;99.90;;;;;;5094085;28;20119;-61
2022/06/01 04:00:10;;;;;;;15.63;13.45;;;11.30;99.90;;;;;;5093873;28;20124;-60
2022/06/01 04:02:37;;;;;;;15.52;13.88;;;11.30;99.90;;;;;;5111867;28;20054;-62
2022/06/01 04:05:03;;;;;;;15.55;13.68;;;11.30;99.90;;;;;;5111327;28;20100;-61
2022/06/01 04:07:29;;;;;;;16.98;14.15;;;11.40;99.90;;;;;;5093592;28;20055;-62
2022/06/01 04:09:55;;;;;;;15.55;13.02;;;11.40;99.90;;;;;;5111129;28;20047;-60
2022/06/01 04:12:21;;;;;;;16.77;13.60;;;11.40;99.90;;;;;;5112067;28;20086;-61
2022/06/01 04:14:46;;;;;;;15.90;14.13;;;11.50;99.90;;;;;;5111298;28;20044;-60
2022/06/01 04:17:12;;;;;;;18.73;14.38;;;11.40;99.90;;;;;;5076650;28;20052;-60
2022/06/01 04:19:38;;;;;;;17.30;13.77;;;11.50;99.90;;;;;;5111722;28;20319;-60
2022/06/01 04:22:04;;;;;;;16.60;13.45;;;11.50;99.90;;;;;;5076364;28;20124;-60
2022/06/01 04:24:32;;;;;;;14.85;13.20;;;11.50;99.90;;;;;;5111505;28;20112;-61
2022/06/01 04:26:58;;;;;;;17.92;13.38;;;11.60;99.90;;;;;;5111163;28;20082;-60
2022/06/01 04:29:24;;;;;;;15.15;13.38;;;11.60;99.90;;;;;;5111675;28;20075;-61
2022/06/01 04:31:58;;;;;;;18.25;14.15;;;11.60;99.90;;;;;;5111265;28;20131;-60
2022/06/01 04:34:24;;;;;;;16.35;13.93;;;11.60;99.90;;;;;;5093327;28;20104;-61
2022/06/01 04:36:52;;;;;;;15.48;13.88;;;11.60;99.90;;;;;;5111157;28;20035;-61
2022/06/01 04:39:18;;;;;;;17.75;14.93;;;11.60;99.90;;;;;;5093174;28;20420;-62
2022/06/01 04:41:44;;;;;;;16.45;14.70;;;11.70;99.90;;;;;;5111447;28;20051;-60
2022/06/01 04:44:09;;;;;;;17.20;14.68;;;11.70;99.90;;;;;;5115063;28;20062;-61
2022/06/01 04:46:36;;;;;;;15.38;13.88;;;11.70;99.90;;;;;;5115330;28;20092;-61
2022/06/01 04:49:03;;;;;;;16.55;14.82;;;11.70;99.90;;;;;;5079854;28;20051;-61
2022/06/01 04:51:29;;;;;;;15.70;13.98;;;11.70;99.90;;;;;;5115118;28;20039;-61
2022/06/01 04:53:54;;;;;;;16.48;14.00;;;11.70;99.90;;;;;;5096701;28;20035;-60
2022/06/01 04:56:20;;;;;;;15.95;13.95;;;11.70;99.90;;;;;;5097064;28;20387;-60
2022/06/01 04:58:46;;;;;;;17.23;14.27;;;11.80;99.90;;;;;;5115213;28;20047;-61
2022/06/01 05:01:11;;;;;;;17.63;14.30;;;11.80;99.90;;;;;;5114632;28;20044;-62
2022/06/01 05:03:37;;;;;;;18.35;14.65;;;11.80;99.90;;;;;;5096331;28;20091;-60
2022/06/01 05:06:03;;;;;;;16.77;15.07;;;11.80;99.90;;;;;;5114388;28;20083;-61
2022/06/01 05:08:29;;;;;;;18.90;14.40;;;11.90;99.90;;;;;;5114094;28;20129;-60
2022/06/01 05:10:54;;;;;;;17.60;15.38;;;11.90;99.90;;;;;;5114307;28;20054;-60
2022/06/01 05:13:21;;;;;;;16.65;14.82;;;12.00;99.90;;;;;;5114931;28;20063;-61
2022/06/01 05:15:52;;;;;;;15.23;13.65;;;12.00;99.90;;;;;;5079957;28;20058;-61
2022/06/01 05:18:19;;;;;;;15.48;13.93;;;12.00;99.90;;;;;;5096399;28;20054;-61
2022/06/01 05:20:45;;;;;;;15.50;13.90;;;12.10;99.90;;;;;;5114430;28;20043;-60
2022/06/01 05:23:11;;;;;;;15.73;13.95;;;12.10;99.90;;;;;;5114361;28;20484;-60
2022/06/01 05:25:40;;;;;;;16.40;13.73;;;12.20;99.90;;;;;;5114487;28;20197;-61
2022/06/01 05:28:06;;;;;;;17.45;13.82;;;12.30;99.90;;;;;;5114278;28;20118;-61
2022/06/01 05:30:31;;;;;;;15.30;13.15;;;12.40;99.90;;;;;;5114220;28;20381;-60
2022/06/01 05:32:57;;;;;;;16.92;15.13;;;12.40;99.90;;;;;;5095891;28;20134;-61
2022/06/01 05:35:23;;;;;;;14.85;13.10;;;12.40;99.90;;;;;;5114367;28;20044;-61
2022/06/01 05:37:49;;;;;;;15.02;13.48;;;12.50;99.90;;;;;;5114263;28;20047;-60
2022/06/01 05:40:14;;;;;;;15.13;13.57;;;12.50;99.90;;;;;;5095915;28;20254;-61
2022/06/01 05:42:40;;;;;;;17.98;14.38;;;12.50;99.90;;;;;;5114038;28;20047;-61
2022/06/01 05:45:07;;;;;;;15.27;13.13;;;12.90;99.90;;;;;;5095368;28;20048;-61
2022/06/01 05:47:34;;;;;;;14.57;13.07;;;13.60;99.90;;;;;;5095714;28;20047;-60
2022/06/01 05:50:00;;;;;;;14.23;12.73;;;14.20;99.90;;;;;;5113407;28;20409;-61
2022/06/01 05:52:25;;;;;;;19.00;13.25;;;14.30;99.90;;;;;;5095721;28;20052;-61
2022/06/01 05:54:51;;;;;;;14.63;12.95;;;14.30;99.90;;;;;;5113520;28;20489;-61
2022/06/01 05:57:17;;;;;;;15.40;12.82;;;14.20;99.90;;;;;;5113547;28;20186;-60
2022/06/01 05:59:42;;;;;;;14.38;12.88;;;14.30;99.90;;;;;;5113579;28;20039;-61
2022/06/01 06:02:09;;;;;;;15.15;12.82;;;14.40;99.90;;;;;;5095146;28;20048;-61
2022/06/01 06:04:35;;;;;;;13.45;12.10;;;14.60;99.90;;;;;;5113421;28;20579;-61
2022/06/01 06:07:01;;;;;;;19.50;12.43;;;15.20;99.90;;;;;;5112962;28;20374;-61
2022/06/01 06:09:27;;;;;;;13.80;11.25;;;16.10;99.90;;;;;;5113665;28;20350;-62
2022/06/01 06:11:53;;;;;;;12.15;10.95;;;17.20;99.90;;;;;;5113141;28;20054;-62
2022/06/01 06:14:21;;;;;;;12.43;10.23;;;17.70;99.90;;;;;;5113226;28;20036;-62
2022/06/01 06:16:47;;;;;;;13.60;10.68;;;18.20;99.90;;;;;;5095495;28;20048;-62
2022/06/01 06:19:19;;;;;;;10.68;9.35;;;19.10;99.90;;;;;;5112960;28;20454;-60
2022/06/01 06:21:45;;;;;;;10.23;9.23;;;19.50;99.90;;;;;;5113302;28;20059;-61
2022/06/01 06:24:13;;;;;;;10.18;9.00;;;19.50;99.90;;;;;;5094837;28;20040;-61
2022/06/01 06:26:42;;;;;;;13.88;9.52;;;19.80;99.90;;;;;;5113176;28;20043;-61
2022/06/01 06:29:10;;;;;;;8.93;7.68;;;20.30;99.90;;;;;;5112730;28;20092;-61
2022/06/01 06:31:37;;;;;;;9.57;8.68;;;20.80;99.90;;;;;;5113147;28;20054;-61
2022/06/01 06:34:03;;;;;;;8.93;8.02;;;20.80;99.90;;;;;;5112758;28;20180;-61
2022/06/01 06:36:29;;;;;;;9.75;8.75;;;20.30;99.90;;;;;;5094997;28;20043;-62
2022/06/01 06:38:55;;;;;;;11.23;9.25;;;19.80;99.90;;;;;;5112786;28;20405;-62
2022/06/01 06:41:21;;;;;;;10.52;8.85;;;19.10;99.90;;;;;;5112611;28;20396;-63
2022/06/01 06:43:48;;;;;;;10.43;9.43;;;18.60;99.90;;;;;;5077918;28;20050;-62
2022/06/01 06:46:19;;;;;;;8.93;7.93;;;18.20;99.90;;;;;;5112383;28;20043;-62
2022/06/01 06:48:48;;;;;;;9.32;7.63;;;17.60;99.90;;;;;;5112783;28;20044;-61
2022/06/01 06:51:14;;;;;;;13.18;8.65;;;16.70;99.90;;;;;;5112337;28;20048;-64
2022/06/01 06:53:40;;;;;;;13.68;6.97;;;16.10;99.90;;;;;;5112663;28;20446;-61
2022/06/01 06:56:06;;;;;;;13.52;7.22;;;15.50;99.90;;;;;;5094159;28;20039;-62
2022/06/01 06:58:33;;;;;;;9.00;6.47;;;14.80;99.90;;;;;;5112494;28;20039;-61
2022/06/01 07:00:58;;;;;;;7.53;5.65;;;14.30;99.90;;;;;;5094366;28;20392;-62
2022/06/01 07:03:24;;;;;;;6.57;5.20;;;13.80;99.90;;;;;;5076873;28;20097;-62
2022/06/01 07:08:36;;;;;;;10.25;6.95;;;13.40;99.90;;;;;;5112436;28;20158;-63
2022/06/01 07:11:02;;;;;;;9.77;6.75;;;13.20;99.90;;;;;;5093987;28;20138;-62
2022/06/01 07:13:28;;;;;;;8.85;6.93;;;13.20;99.90;;;;;;5111909;28;20134;-61
2022/06/01 07:16:13;;;;;;;9.32;7.22;;;13.00;99.90;;;;;;5112159;28;20039;-61
2022/06/01 07:18:40;;;;;;;;;;;12.90;99.90;;;;;;5112804;28;20048;-61
2022/06/01 07:21:07;;;;;;;9.25;7.97;;;12.90;99.90;;;;;;5111926;28;19926;-62
2022/06/01 07:23:34;;;;;;;9.30;8.10;;;12.90;99.90;;;;;;5111667;28;20373;-60
2022/06/01 07:26:00;;;;;;;11.57;8.43;;;12.90;99.90;;;;;;5093591;28;20427;-63
2022/06/01 07:28:26;;;;;;;10.57;9.48;;;12.90;99.90;;;;;;5076786;28;20047;-62
2022/06/01 07:30:59;;;;;;;10.65;9.05;;;12.90;99.90;;;;;;5093135;28;20096;-62
2022/06/01 07:33:28;;;;;;;12.00;8.98;;;12.90;99.90;;;;;;5093252;28;20048;-62
2022/06/01 07:35:55;;;;;;;10.52;9.43;;;12.90;99.90;;;;;;5111782;28;20100;-62
2022/06/01 07:43:53;;;;;;;11.48;8.70;;;13.20;99.90;;;;;;5111675;28;20142;-62
2022/06/01 07:46:19;;;;;;;12.18;9.55;;;13.50;99.90;;;;;;5093061;28;20134;-62
2022/06/01 07:48:46;;;;;;;10.93;8.90;;;13.80;99.90;;;;;;5111518;28;20135;-62
2022/06/01 07:51:13;;;;;;;10.05;7.97;;;14.10;99.90;;;;;;5076822;28;20055;-62
2022/06/01 07:53:39;;;;;;;8.80;7.90;;;14.50;99.90;;;;;;5111261;28;20484;-62
2022/06/01 07:56:05;;;;;;;8.40;6.88;;;15.20;99.90;;;;;;5093713;28;20050;-61
2022/06/01 07:58:31;;;;;;;7.50;6.63;;;16.10;99.90;;;;;;5111474;28;20047;-62
2022/06/01 08:00:56;;;;;;;9.18;6.53;;;17.00;99.90;;;;;;5111733;28;20044;-64
2022/06/01 08:03:22;;;;;;;7.55;6.75;;;17.90;99.90;;;;;;5093317;28;20048;-63
2022/06/01 08:05:48;;;;;;;7.72;6.53;;;18.60;99.90;;;;;;5111375;28;20047;-63
2022/06/01 08:08:14;;;;;;;7.47;6.78;;;19.30;99.90;;;;;;5111129;28;20059;-62
2022/06/01 08:10:40;;;;;;;9.02;6.78;;;19.70;99.90;;;;;;5111509;28;20121;-63
2022/06/01 08:13:11;;;;;;;7.78;6.72;;;19.90;99.90;;;;;;5111272;28;20044;-63
2022/06/01 08:15:39;;;;;;;7.68;6.85;;;20.30;99.90;;;;;;5111239;28;20047;-63
2022/06/01 08:18:05;;;;;;;7.95;6.47;;;20.90;99.90;;;;;;5115932;28;20054;-63
2022/06/01 08:20:32;;;;;;;7.00;6.03;;;21.40;99.90;;;;;;5115343;28;20477;-62
2022/06/01 08:22:58;;;;;;;7.85;5.30;;;22.00;99.90;;;;;;5115709;28;20039;-63
2022/06/01 08:25:26;;;;;;;5.50;4.60;;;22.20;99.90;;;;;;5115127;28;20079;-63
2022/06/01 08:27:52;;;;;;;5.13;4.43;;;21.80;99.90;;;;;;5097344;28;20054;-62
2022/06/01 08:30:21;;;;;;;5.03;4.43;;;21.20;99.90;;;;;;5115527;28;20039;-62
2022/06/01 08:32:48;;;;;;;5.28;4.63;;;20.60;99.90;;;;;;5115380;28;20062;-64
2022/06/01 08:35:16;;;;;;;4.93;4.30;;;20.00;99.90;;;;;;5115450;28;20073;-62
2022/06/01 08:37:42;;;;;;;5.30;4.80;;;19.50;99.90;;;;;;5115126;28;20159;-62
2022/06/01 08:40:09;;;;;;;5.30;4.40;;;19.30;99.90;;;;;;5115319;28;20044;-61
2022/06/01 08:42:37;;;;;;;5.22;4.45;;;19.00;99.90;;;;;;5114551;28;20507;-62
2022/06/01 08:45:07;;;;;;;5.55;4.85;;;18.80;99.90;;;;;;5096924;28;20420;-62
2022/06/01 08:47:37;;;;;;;6.30;4.60;;;18.50;99.90;;;;;;5114283;28;20051;-63
2022/06/01 08:50:25;;;;;;;7.47;4.97;;;18.30;99.90;;;;;;5096694;28;20440;-64
2022/06/01 08:52:53;;;;;;;5.78;5.18;;;18.10;99.90;;;;;;5114529;28;20059;-61
2022/06/01 08:55:19;;;;;;;6.35;4.90;;;18.00;99.90;;;;;;5114733;28;20047;-62
2022/06/01 08:57:58;;;;;;;5.97;4.90;;;18.00;99.90;;;;;;5114592;28;20047;-63
2022/06/01 09:00:27;;;;;;;6.53;5.13;;;18.20;99.90;;;;;;5114561;28;20507;-60
2022/06/01 09:03:02;;;;;;;6.22;4.70;;;18.40;99.90;;;;;;5114729;28;20051;-64
2022/06/01 09:05:44;;;;;;;4.95;4.03;;;18.50;99.90;;;;;;5114480;28;20063;-61
2022/06/01 09:08:34;;;;;;;5.70;3.80;;;18.70;99.90;;;;;;5114599;28;20443;-61
2022/06/01 09:11:10;;;;;;;5.70;3.78;;;19.00;99.90;;;;;;5114908;28;20134;-62
2022/06/01 09:14:16;;;;;;;4.05;3.58;;;19.00;99.90;;;;;;5114494;28;20195;-61
2022/06/01 09:16:55;;;;;;;4.40;3.28;;;19.00;99.90;;;;;;5011375;28;20049;-62
2022/06/01 09:22:37;;;;;;;3.47;2.95;;;18.80;99.90;;;;;;5106373;28;20138;-61
2022/06/01 09:25:06;;;;;;;3.55;3.10;;;18.90;99.90;;;;;;5114617;28;20134;-61
2022/06/01 09:27:39;;;;;;;3.83;3.22;;;19.00;99.90;;;;;;5113545;28;20048;-61
2022/06/01 09:30:20;;;;;;;4.40;3.87;;;19.20;99.90;;;;;;5114464;28;20040;-61
2022/06/01 09:33:24;;;;;;;3.90;3.28;;;19.30;99.90;;;;;;5113946;28;20047;-61
2022/06/01 09:36:01;;;;;;;4.68;3.30;;;19.70;99.90;;;;;;5094450;28;20051;-61
2022/06/01 09:38:49;;;;;;;4.05;3.20;;;19.80;99.90;;;;;;5096097;28;20346;-61
2022/06/01 09:41:31;;;;;;;4.18;3.30;;;19.60;99.90;;;;;;5096147;28;20048;-61
2022/06/01 09:44:06;;;;;;;3.38;2.92;;;19.50;99.90;;;;;;5113632;28;20126;-61
2022/06/01 09:46:39;;;;;;;4.47;3.10;;;19.20;99.90;;;;;;5113472;28;20050;-62
2022/06/01 09:49:11;;;;;;;3.77;2.90;;;19.00;99.90;;;;;;5113579;28;20043;-60
2022/06/01 09:51:41;;;;;;;4.50;2.92;;;19.00;99.90;;;;;;5113707;28;20274;-61
2022/06/01 09:54:24;;;;;;;3.60;2.92;;;19.20;99.90;;;;;;5113956;28;20048;-61
2022/06/01 09:56:53;;;;;;;3.27;2.47;;;19.10;99.90;;;;;;5113618;28;20515;-61
2022/06/01 10:08:04;;;;;;;2.28;2.05;;;18.30;99.90;;;;;;5095271;28;20094;-62
2022/06/01 10:10:29;;;;;;;2.60;2.00;;;18.20;99.90;;;;;;5113661;28;20055;-61
2022/06/01 10:12:58;;;;;;;1.85;1.60;;;18.20;99.90;;;;;;5113173;28;20104;-62
2022/06/01 10:15:47;;;;;;;2.17;1.52;;;18.20;99.90;;;;;;5111657;28;20116;-61
2022/06/01 10:18:23;;;;;;;2.70;1.55;;;18.20;99.90;;;;;;5112762;28;20082;-61
2022/06/01 10:21:18;;;;;;;1.63;1.25;;;18.40;99.90;;;;;;5113100;28;20087;-61
2022/06/01 10:23:56;;;;;;;2.17;1.50;;;18.60;99.90;;;;;;5113113;28;20086;-61
2022/06/01 10:26:37;;;;;;;2.38;1.70;;;18.90;99.90;;;;;;5113058;28;20051;-62
2022/06/01 10:29:07;;;;;;;2.78;1.70;;;19.00;99.80;;;;;;5113343;28;20079;-61
2022/06/01 10:31:42;;;;;;;1.73;1.35;;;19.20;99.40;;;;;;5113112;28;20051;-61
2022/06/01 10:34:32;;;;;;;3.85;1.58;;;19.20;99.10;;;;;;5112779;28;20070;-61
2022/06/01 10:37:19;;;;;;;1.92;1.55;;;19.20;99.40;;;;;;5112689;28;20039;-61
2022/06/01 10:40:06;;;;;;;2.00;1.60;;;19.20;99.30;;;;;;5112592;28;20044;-63
2022/06/01 10:46:00;;;;;;;1.92;1.48;;;19.60;99.70;;;;;;5112212;28;20120;-65
2022/06/01 10:48:29;;;;;;;2.80;1.45;;;19.40;99.10;;;;;;5112456;28;20086;-63
2022/06/01 10:51:13;;;;;;;2.05;1.38;;;19.20;98.60;;;;;;5094070;28;20062;-61
2022/06/01 10:53:51;;;;;;;2.75;1.42;;;19.10;98.40;;;;;;5094678;28;20043;-64
2022/06/01 10:56:21;;;;;;;1.92;1.45;;;19.00;99.40;;;;;;5112579;28;20488;-68
2022/06/01 10:58:49;;;;;;;3.17;1.65;;;18.90;99.70;;;;;;5112322;28;20404;-60
2022/06/01 11:01:41;;;;;;;2.53;1.40;;;18.90;99.60;;;;;;5112377;28;20370;-61
2022/06/01 11:04:37;;;;;;;1.83;1.40;;;18.90;99.10;;;;;;5112190;28;20036;-61
2022/06/01 11:07:11;;;;;;;2.35;1.70;;;19.00;98.70;;;;;;5111914;28;20373;-63
2022/06/01 11:09:50;;;;;;;4.10;1.80;;;18.90;99.40;;;;;;5112149;28;20059;-61
2022/06/01 11:12:45;;;;;;;2.03;1.50;;;18.70;99.30;;;;;;5112288;28;20484;-61
2022/06/01 11:15:23;;;;;;;3.08;1.48;;;18.50;99.40;;;;;;5093574;28;20100;-61
2022/06/01 11:17:56;;;;;;;2.70;1.90;;;18.60;99.90;;;;;;5110431;28;20047;-61
2022/06/01 11:20:36;;;;;;;2.65;1.80;;;18.50;99.90;;;;;;5111873;28;20122;-62
2022/06/01 11:23:20;;;;;;;4.10;2.17;;;18.60;99.90;;;;;;5112013;28;20378;-62
2022/06/01 11:26:00;;;;;;;5.63;2.40;;;18.40;99.90;;;;;;5111770;28;20457;-61
2022/06/01 11:28:38;;;;;;;2.92;2.05;;;18.30;99.90;;;;;;5111956;28;20090;-61
2022/06/01 11:31:12;;;;;;;2.90;2.08;;;18.20;99.90;;;;;;5076620;28;20090;-62
2022/06/01 11:33:58;;;;;;;2.88;1.90;;;18.20;99.90;;;;;;5112409;28;20409;-61
2022/06/01 11:36:35;;;;;;;3.03;2.00;;;18.20;99.90;;;;;;5111787;28;20050;-61
2022/06/01 11:39:19;;;;;;;2.08;1.73;;;18.00;99.90;;;;;;5111887;28;20047;-62
2022/06/01 11:42:21;;;;;;;3.38;1.70;;;18.00;99.90;;;;;;5112095;28;20058;-63
2022/06/01 11:44:53;;;;;;;4.60;1.83;;;17.90;99.90;;;;;;5111718;28;20491;-70
2022/06/01 11:47:21;;;;;;;1.67;1.40;;;17.90;99.90;;;;;;5093793;28;20046;-62
2022/06/01 11:50:43;;;;;;;1.52;1.20;;;18.00;99.90;;;;;;5093398;28;20367;-68
2022/06/01 11:53:18;;;;;;;2.00;1.60;;;18.10;99.90;;;;;;5071946;28;20127;-61
2022/06/01 11:55:48;;;;;;;2.03;1.42;;;18.20;99.90;;;;;;5111736;28;20479;-60
2022/06/01 11:58:29;;;;;;;2.90;1.65;;;18.40;99.90;;;;;;5111709;28;20059;-61
2022/06/01 12:01:13;;;;;;;2.67;1.60;;;18.50;99.90;;;;;;5111151;28;20373;-60
2022/06/01 12:03:55;;;;;;;2.25;1.60;;;18.40;99.90;;;;;;5111612;28;20545;-61
2022/06/01 12:06:43;;;;;;;2.22;1.40;;;18.40;99.90;;;;;;5109333;28;20042;-66
2022/06/01 12:09:19;;;;;;;2.97;1.40;;;18.30;99.90;;;;;;5089630;28;20095;-61
2022/06/01 12:11:46;;;;;;;2.38;1.45;;;18.50;99.90;;;;;;5091400;28;20063;-62
2022/06/01 12:14:54;;;;;;;3.47;1.60;;;18.50;99.10;;;;;;5090829;28;20048;-62
2022/06/01 12:17:20;;;;;;;4.35;1.60;;;18.70;99.00;;;;;;5089705;28;20097;-66
2022/06/01 12:19:49;;;;;;;1.95;1.52;;;18.70;99.20;;;;;;5091211;28;20044;-62
2022/06/01 12:28:43;;;;;;;2.17;1.40;;;18.70;99.20;;;;;;5090592;28;20056;-64
2022/06/01 12:31:16;;;;;;;3.40;1.70;;;18.80;99.00;;;;;;5090692;28;20055;-63
2022/06/01 12:34:01;;;;;;;1.87;1.60;;;18.80;99.60;;;;;;5090074;28;20102;-67
2022/06/01 12:36:36;;;;;;;2.28;1.65;;;18.70;99.50;;;;;;5090659;28;20086;-66
2022/06/01 12:39:18;;;;;;;3.35;1.90;;;18.80;99.30;;;;;;5089259;28;20083;-61
2022/06/01 12:41:48;;;;;;;3.10;2.15;;;18.70;99.10;;;;;;5073303;28;20481;-60
2022/06/01 12:44:16;;;;;;;3.13;2.00;;;18.60;99.30;;;;;;5090728;28;20063;-62
2022/06/01 12:46:45;;;;;;;2.95;1.90;;;18.50;99.50;;;;;;5073053;28;20047;-61
2022/06/01 12:49:37;;;;;;;2.78;1.98;;;18.40;99.40;;;;;;5089533;28;20044;-60
2022/06/01 12:52:03;;;;;;;2.60;1.90;;;18.50;99.90;;;;;;5089076;28;20477;-61
2022/06/01 12:54:42;;;;;;;2.30;1.90;;;18.60;99.80;;;;;;5090574;28;20497;-61
2022/06/01 12:57:12;;;;;;;2.42;1.85;;;18.70;99.90;;;;;;5090697;28;20083;-61
2022/06/01 12:59:40;;;;;;;3.15;2.10;;;18.70;99.70;;;;;;5090562;28;20044;-60
2022/06/01 13:02:12;;;;;;;2.78;2.47;;;18.50;99.90;;;;;;5090404;28;20070;-61
2022/06/01 13:04:49;;;;;;;4.07;2.65;;;18.40;99.90;;;;;;5093866;28;20048;-60
2022/06/01 13:07:16;;;;;;;2.40;2.00;;;18.20;99.90;;;;;;5093106;28;20043;-62
2022/06/01 13:09:43;;;;;;;2.65;1.70;;;18.00;99.90;;;;;;5113750;28;20058;-61
2022/06/01 13:12:16;;;;;;;2.40;1.80;;;17.80;99.70;;;;;;5113950;28;20494;-60
2022/06/01 13:14:44;;;;;;;3.45;1.65;;;17.60;99.90;;;;;;5114701;28;20131;-60
2022/06/01 13:17:13;;;;;;;2.13;1.70;;;17.40;99.90;;;;;;5079770;28;20047;-60
2022/06/01 13:19:40;;;;;;;3.22;1.88;;;17.20;99.90;;;;;;5114723;28;20463;-60
2022/06/01 13:22:19;;;;;;;3.40;1.92;;;17.00;99.90;;;;;;5096313;28;20043;-62
2022/06/01 13:25:00;;;;;;;3.80;2.13;;;16.70;99.90;;;;;;5114702;28;20043;-62
2022/06/01 13:27:29;;;;;;;2.97;2.00;;;16.60;99.90;;;;;;5114255;28;20083;-59
2022/06/01 13:29:59;;;;;;;3.33;2.17;;;16.50;99.90;;;;;;5079267;28;20511;-61
2022/06/01 13:32:43;;;;;;;3.50;2.30;;;16.50;99.90;;;;;;5095843;28;20048;-63
2022/06/01 13:35:28;;;;;;;2.65;2.00;;;16.50;99.90;;;;;;5095983;28;20053;-63
2022/06/01 13:37:56;;;;;;;3.63;2.50;;;16.50;99.90;;;;;;5114344;28;20130;-62